首页
METAR-TAF:

METAR-TAF

机场 :

North Las Vegas Airport

北拉斯維加斯, 内华达州, 美国

纬度: 36-12-42N, 经度: 115-11-45W, 海拔: 672米

当前天气观测

该预报发布于1小时和1分钟前的19:53 UTC
风速7节,风向
温度 30°C
湿度 22%
气压 1013 hPa
能見度: 16.1公里
天空无云

METAR: KVGT 231953Z 10007KT 10SM CLR 30/06 A2991 RMK AO2 SLP123 T03000061

时间: 13:54 (20:54 UTC)

预报

该预报发布于3小时和14分钟前的17:40 UTC
预报有效从23日的 18点(UTC)到 24日的 18点(UTC)
风速6节,风向
能見度: 10公里
少量云层高于15000英尺
散云层高于20000英尺
多云层高于25000英尺
从 23日的 2000点(UTC)
风速10节,风向,有时为17节阵风
能見度: 10公里
少量云层高于12000英尺
散云层高于15000英尺
多云层高于25000英尺
从 24日的 0100点(UTC)
风速12节,风向南转南东,有时为19节阵风
能見度: 10公里
散云层高于9000英尺
多云层高于15000英尺
附近有阵雨
从 24日的 0500点(UTC)
风速7节,风向北转西北
能見度: 10公里
散云层高于10000英尺
散云层高于15000英尺

TAF: KVGT 231740Z 2318/2418 09006KT P6SM FEW150 SCT200 BKN250 FM232000 19010G17KT P6SM FEW120 SCT150 BKN250 FM240100 15012G19KT P6SM VCSH SCT090 BKN150 FM240500 34007KT P6SM SCT100 SCT150

超过4000个机场的气象观测和天气预报(METAR&TAF报告)。

可查询的气象台以黄色和红色小点在地图上表示。

将鼠标移到小点上方,可查看气象台名称。

然后点击查看天气观测和预报。

如需切换地图:点击带黑十字的绿色按钮放大地图;点击带横线的绿色按钮缩小地图;或者点击绿色箭头查看邻近地区的地图。


METAR-TAF: